TALR91 YSHW-YCOM
Flight info
| Callsign | TALR91 |
|---|---|
| Flight time | N/A |
| Altitude | 8000 |
| Route | PEGSU ATGOD |
| Aircraft | H60/M-SDFGRY/LB1 |
Departure
| Time | 2026-05-01 14:11 |
|---|---|
| Airport | Holsworthy (Military) Airport (YSHW) |
Arrival
| Time | N/A |
|---|---|
| Airport | Cooma Snowy Mountains Airport (YCOM) |
| Time | Latitude | Longitude | Altitude | Speed | Heading |
|---|---|---|---|---|---|
| 2026-05-01 14:05 | -33.99511 | 150.95322 | 244 ft | 0 kts | 123° |
| 2026-05-01 14:10 | -33.99515 | 150.95328 | 245 ft | 2 kts | 122° |
| 2026-05-01 14:10 | -33.99534 | 150.95340 | 245 ft | 7 kts | 208° |
| 2026-05-01 14:10 | -33.99568 | 150.95314 | 245 ft | 4 kts | 212° |
| 2026-05-01 14:11 | -33.99594 | 150.95292 | 255 ft | 6 kts | 208° |
| 2026-05-01 14:11 | -33.99773 | 150.95591 | 384 ft | 69 kts | 123° |
| 2026-05-01 14:11 | -34.00114 | 150.96153 | 897 ft | 95 kts | 130° |
| 2026-05-01 14:12 | -34.00861 | 150.96359 | 1127 ft | 125 kts | 183° |
| 2026-05-01 14:12 | -34.01724 | 150.96089 | 1492 ft | 132 kts | 199° |
| 2026-05-01 14:12 | -34.02641 | 150.95665 | 1790 ft | 150 kts | 204° |
| 2026-05-01 14:12 | -34.03643 | 150.95169 | 1887 ft | 163 kts | 203° |
| 2026-05-01 14:13 | -34.04687 | 150.94625 | 1959 ft | 158 kts | 205° |
| 2026-05-01 14:13 | -34.05658 | 150.94168 | 2406 ft | 148 kts | 203° |
| 2026-05-01 14:13 | -34.06653 | 150.93722 | 2889 ft | 157 kts | 203° |
| 2026-05-01 14:13 | -34.07679 | 150.93257 | 3357 ft | 159 kts | 203° |
| 2026-05-01 14:14 | -34.08715 | 150.92714 | 3748 ft | 167 kts | 207° |
| 2026-05-01 14:14 | -34.09763 | 150.92035 | 3976 ft | 167 kts | 208° |
| 2026-05-01 14:14 | -34.10709 | 150.91412 | 4295 ft | 154 kts | 208° |
| 2026-05-01 14:14 | -34.11676 | 150.90782 | 4620 ft | 163 kts | 208° |
| 2026-05-01 14:15 | -34.12666 | 150.90132 | 4932 ft | 163 kts | 208° |
| 2026-05-01 14:15 | -34.13663 | 150.89490 | 5207 ft | 164 kts | 208° |
| 2026-05-01 14:15 | -34.14665 | 150.88849 | 5457 ft | 164 kts | 208° |
| 2026-05-01 14:15 | -34.15674 | 150.88207 | 5670 ft | 164 kts | 208° |
| 2026-05-01 14:16 | -34.16683 | 150.87559 | 5867 ft | 163 kts | 208° |
| 2026-05-01 14:16 | -34.17696 | 150.86913 | 6042 ft | 165 kts | 208° |
| 2026-05-01 14:16 | -34.18714 | 150.86266 | 6195 ft | 165 kts | 208° |
| 2026-05-01 14:16 | -34.19738 | 150.85621 | 6330 ft | 165 kts | 208° |
| 2026-05-01 14:17 | -34.20759 | 150.84975 | 6442 ft | 166 kts | 208° |
| 2026-05-01 14:17 | -34.21793 | 150.84328 | 6543 ft | 170 kts | 206° |
| 2026-05-01 14:17 | -34.22891 | 150.83764 | 6601 ft | 165 kts | 202° |
| 2026-05-01 14:17 | -34.23955 | 150.83244 | 6680 ft | 168 kts | 202° |
| 2026-05-01 14:18 | -34.25021 | 150.82723 | 6756 ft | 168 kts | 202° |
| 2026-05-01 14:18 | -34.26102 | 150.82198 | 6817 ft | 167 kts | 202° |
| 2026-05-01 14:18 | -34.27183 | 150.81670 | 6894 ft | 167 kts | 202° |
| 2026-05-01 14:18 | -34.27913 | 150.81317 | 6998 ft | 168 kts | 202° |
| 2026-05-01 14:19 | -34.29349 | 150.80623 | 7212 ft | 168 kts | 202° |
| 2026-05-01 14:19 | -34.30438 | 150.80095 | 7356 ft | 167 kts | 202° |
| 2026-05-01 14:19 | -34.31527 | 150.79568 | 7477 ft | 169 kts | 202° |
| 2026-05-01 14:19 | -34.32624 | 150.79032 | 7584 ft | 171 kts | 202° |
| 2026-05-01 14:20 | -34.33718 | 150.78494 | 7614 ft | 170 kts | 202° |
| 2026-05-01 14:20 | -34.35751 | 150.76930 | 7206 ft | 164 kts | 219° |
| 2026-05-01 14:20 | -34.36648 | 150.76094 | 7201 ft | 164 kts | 219° |
| 2026-05-01 14:21 | -34.37541 | 150.75256 | 7334 ft | 160 kts | 219° |
| 2026-05-01 14:21 | -34.38413 | 150.74435 | 7492 ft | 158 kts | 219° |
| 2026-05-01 14:21 | -34.39283 | 150.73627 | 7634 ft | 158 kts | 219° |
| 2026-05-01 14:22 | -34.41042 | 150.71990 | 7870 ft | 161 kts | 219° |
| 2026-05-01 14:22 | -34.41934 | 150.71151 | 7820 ft | 163 kts | 219° |
| 2026-05-01 14:22 | -34.42807 | 150.70334 | 7853 ft | 154 kts | 219° |
| 2026-05-01 14:22 | -34.43638 | 150.69560 | 7941 ft | 148 kts | 219° |
| 2026-05-01 14:23 | -34.44442 | 150.68812 | 7988 ft | 143 kts | 219° |
| 2026-05-01 14:23 | -34.45233 | 150.68079 | 7989 ft | 143 kts | 219° |
| 2026-05-01 14:23 | -34.46019 | 150.67354 | 7997 ft | 140 kts | 219° |
| 2026-05-01 14:23 | -34.46775 | 150.66647 | 8001 ft | 137 kts | 219° |
| 2026-05-01 14:24 | -34.47545 | 150.65965 | 8004 ft | 137 kts | 216° |
| 2026-05-01 14:24 | -34.48328 | 150.65314 | 8006 ft | 135 kts | 216° |
| 2026-05-01 14:24 | -34.49107 | 150.64659 | 8009 ft | 137 kts | 216° |
| 2026-05-01 14:24 | -34.49905 | 150.63992 | 8006 ft | 141 kts | 216° |
| 2026-05-01 14:25 | -34.50715 | 150.63313 | 8005 ft | 142 kts | 216° |
| 2026-05-01 14:25 | -34.51526 | 150.62620 | 8006 ft | 143 kts | 216° |
| 2026-05-01 14:25 | -34.52332 | 150.61939 | 8008 ft | 138 kts | 216° |
| 2026-05-01 14:25 | -34.53117 | 150.61278 | 8008 ft | 137 kts | 216° |
| 2026-05-01 14:26 | -34.53890 | 150.60635 | 8008 ft | 136 kts | 216° |
| 2026-05-01 14:26 | -34.55444 | 150.59331 | 8007 ft | 135 kts | 216° |
| 2026-05-01 14:26 | -34.56217 | 150.58679 | 8008 ft | 135 kts | 216° |
| 2026-05-01 14:27 | -34.56992 | 150.58031 | 8007 ft | 135 kts | 216° |
| 2026-05-01 14:27 | -34.57762 | 150.57390 | 8004 ft | 134 kts | 216° |
| 2026-05-01 14:27 | -34.58534 | 150.56751 | 8007 ft | 134 kts | 216° |
| 2026-05-01 14:28 | -34.60058 | 150.55462 | 8007 ft | 134 kts | 216° |
| 2026-05-01 14:28 | -34.60826 | 150.54816 | 8006 ft | 134 kts | 216° |
| 2026-05-01 14:28 | -34.61596 | 150.54177 | 8008 ft | 134 kts | 216° |
| 2026-05-01 14:28 | -34.62356 | 150.53534 | 8007 ft | 133 kts | 216° |
| 2026-05-01 14:29 | -34.63113 | 150.52890 | 8006 ft | 134 kts | 216° |
| 2026-05-01 14:29 | -34.63874 | 150.52233 | 8005 ft | 138 kts | 217° |
| 2026-05-01 14:30 | -34.66273 | 150.50166 | 8014 ft | 143 kts | 217° |
| 2026-05-01 14:30 | -34.67079 | 150.49461 | 8015 ft | 143 kts | 217° |
| 2026-05-01 14:30 | -34.67893 | 150.48762 | 8014 ft | 144 kts | 217° |
| 2026-05-01 14:31 | -34.69509 | 150.47377 | 8015 ft | 142 kts | 217° |
| 2026-05-01 14:31 | -34.70320 | 150.46684 | 8016 ft | 143 kts | 217° |
| 2026-05-01 14:31 | -34.71135 | 150.45983 | 8017 ft | 144 kts | 217° |
| 2026-05-01 14:31 | -34.71946 | 150.45277 | 8018 ft | 143 kts | 217° |
| 2026-05-01 14:32 | -34.72742 | 150.44590 | 8014 ft | 142 kts | 217° |
| 2026-05-01 14:32 | -34.73542 | 150.43899 | 8016 ft | 142 kts | 217° |
| 2026-05-01 14:32 | -34.74337 | 150.43211 | 8017 ft | 139 kts | 217° |
| 2026-05-01 14:32 | -34.75121 | 150.42530 | 8019 ft | 138 kts | 217° |
| 2026-05-01 14:33 | -34.75895 | 150.41856 | 8018 ft | 136 kts | 217° |
| 2026-05-01 14:33 | -34.76662 | 150.41183 | 8017 ft | 135 kts | 217° |
| 2026-05-01 14:33 | -34.77426 | 150.40525 | 8018 ft | 134 kts | 217° |
| 2026-05-01 14:33 | -34.78176 | 150.39875 | 8018 ft | 134 kts | 217° |
| 2026-05-01 14:34 | -34.78949 | 150.39217 | 8016 ft | 133 kts | 217° |
| 2026-05-01 14:34 | -34.79693 | 150.38573 | 8017 ft | 133 kts | 217° |
| 2026-05-01 14:34 | -34.80446 | 150.37912 | 8018 ft | 133 kts | 217° |
| 2026-05-01 14:34 | -34.81207 | 150.37254 | 8016 ft | 135 kts | 217° |
| 2026-05-01 14:35 | -34.81966 | 150.36598 | 8016 ft | 133 kts | 217° |
| 2026-05-01 14:35 | -34.82715 | 150.35950 | 8019 ft | 131 kts | 217° |
| 2026-05-01 14:35 | -34.83468 | 150.35304 | 8013 ft | 133 kts | 217° |
| 2026-05-01 14:35 | -34.84213 | 150.34657 | 8015 ft | 130 kts | 217° |
| 2026-05-01 14:36 | -34.84961 | 150.34009 | 8017 ft | 133 kts | 217° |
| 2026-05-01 14:36 | -34.85725 | 150.33356 | 8014 ft | 135 kts | 217° |
| 2026-05-01 14:36 | -34.86493 | 150.32691 | 8015 ft | 136 kts | 217° |
| 2026-05-01 14:36 | -34.87262 | 150.32028 | 8016 ft | 136 kts | 217° |
| 2026-05-01 14:37 | -34.88036 | 150.31370 | 8014 ft | 134 kts | 217° |
| 2026-05-01 14:37 | -34.88793 | 150.30714 | 8016 ft | 133 kts | 217° |
| 2026-05-01 14:37 | -34.89546 | 150.30060 | 8015 ft | 133 kts | 217° |
| 2026-05-01 14:37 | -34.90297 | 150.29407 | 8016 ft | 132 kts | 217° |
| 2026-05-01 14:38 | -34.91049 | 150.28761 | 8018 ft | 133 kts | 217° |
| 2026-05-01 14:38 | -34.91803 | 150.28107 | 8015 ft | 133 kts | 217° |
| 2026-05-01 14:38 | -34.92548 | 150.27459 | 8016 ft | 132 kts | 217° |
| 2026-05-01 14:38 | -34.93300 | 150.26804 | 8013 ft | 133 kts | 217° |
| 2026-05-01 14:39 | -34.94050 | 150.26148 | 8017 ft | 133 kts | 217° |
| 2026-05-01 14:39 | -34.94808 | 150.25500 | 8013 ft | 132 kts | 217° |
| 2026-05-01 14:39 | -34.95557 | 150.24851 | 8015 ft | 131 kts | 217° |
| 2026-05-01 14:39 | -34.96308 | 150.24207 | 8016 ft | 132 kts | 217° |
| 2026-05-01 14:40 | -34.97060 | 150.23559 | 8015 ft | 132 kts | 217° |
| 2026-05-01 14:40 | -34.97808 | 150.22917 | 8016 ft | 131 kts | 217° |
| 2026-05-01 14:40 | -34.98556 | 150.22279 | 8018 ft | 130 kts | 217° |
| 2026-05-01 14:40 | -34.99294 | 150.21636 | 8015 ft | 130 kts | 217° |
| 2026-05-01 14:41 | -35.00033 | 150.20992 | 8013 ft | 130 kts | 217° |
| 2026-05-01 14:41 | -35.00759 | 150.20357 | 8016 ft | 130 kts | 217° |
| 2026-05-01 14:41 | -35.01501 | 150.19716 | 8014 ft | 132 kts | 217° |
| 2026-05-01 14:41 | -35.02246 | 150.19079 | 8017 ft | 130 kts | 217° |
| 2026-05-01 14:42 | -35.02977 | 150.18437 | 8016 ft | 130 kts | 217° |
| 2026-05-01 14:42 | -35.03713 | 150.17806 | 8013 ft | 130 kts | 217° |
| 2026-05-01 14:42 | -35.04446 | 150.17162 | 8023 ft | 131 kts | 219° |
| 2026-05-01 14:42 | -35.05167 | 150.16482 | 8024 ft | 133 kts | 219° |
| 2026-05-01 14:43 | -35.05912 | 150.15773 | 8023 ft | 139 kts | 219° |
| 2026-05-01 14:43 | -35.06683 | 150.15046 | 8023 ft | 139 kts | 219° |
| 2026-05-01 14:43 | -35.07439 | 150.14325 | 8023 ft | 138 kts | 219° |
| 2026-05-01 14:43 | -35.08204 | 150.13609 | 8023 ft | 138 kts | 219° |
| 2026-05-01 14:44 | -35.08962 | 150.12903 | 8024 ft | 135 kts | 219° |
| 2026-05-01 14:44 | -35.10438 | 150.11495 | 8023 ft | 134 kts | 219° |
| 2026-05-01 14:44 | -35.11177 | 150.10796 | 8027 ft | 136 kts | 219° |
| 2026-05-01 14:45 | -35.11927 | 150.10089 | 8024 ft | 135 kts | 219° |
| 2026-05-01 14:45 | -35.13417 | 150.08671 | 8024 ft | 138 kts | 219° |
| 2026-05-01 14:45 | -35.14182 | 150.07948 | 8023 ft | 139 kts | 219° |
| 2026-05-01 14:46 | -35.14951 | 150.07220 | 8024 ft | 141 kts | 219° |
| 2026-05-01 14:46 | -35.16508 | 150.05738 | 8024 ft | 143 kts | 219° |
| 2026-05-01 14:46 | -35.17291 | 150.04985 | 8024 ft | 143 kts | 219° |
| 2026-05-01 14:47 | -35.18063 | 150.04243 | 8025 ft | 142 kts | 219° |
| 2026-05-01 14:47 | -35.18850 | 150.03493 | 8025 ft | 142 kts | 219° |
| 2026-05-01 14:47 | -35.19620 | 150.02762 | 8024 ft | 141 kts | 219° |
| 2026-05-01 14:48 | -35.21188 | 150.01252 | 8024 ft | 143 kts | 219° |
| 2026-05-01 14:48 | -35.21966 | 150.00511 | 8024 ft | 143 kts | 219° |
| 2026-05-01 14:48 | -35.23538 | 149.99005 | 8024 ft | 144 kts | 219° |
| 2026-05-01 14:49 | -35.25106 | 149.97511 | 8025 ft | 143 kts | 219° |
| 2026-05-01 14:49 | -35.26677 | 149.96015 | 8026 ft | 142 kts | 219° |
| 2026-05-01 14:50 | -35.27724 | 149.95021 | 8025 ft | 142 kts | 219° |
| 2026-05-01 14:50 | -35.29790 | 149.93051 | 8026 ft | 141 kts | 219° |
| 2026-05-01 14:51 | -35.30567 | 149.92310 | 8025 ft | 142 kts | 219° |
| 2026-05-01 14:51 | -35.32117 | 149.90829 | 8025 ft | 141 kts | 219° |
| 2026-05-01 14:52 | -35.33673 | 149.89341 | 8024 ft | 143 kts | 219° |
| 2026-05-01 14:52 | -35.34445 | 149.88598 | 8024 ft | 143 kts | 219° |
| 2026-05-01 14:52 | -35.36000 | 149.87099 | 8024 ft | 143 kts | 219° |
| 2026-05-01 14:53 | -35.36784 | 149.86350 | 8025 ft | 143 kts | 219° |
| 2026-05-01 14:53 | -35.37569 | 149.85601 | 8024 ft | 143 kts | 219° |
| 2026-05-01 14:53 | -35.38349 | 149.84850 | 8025 ft | 142 kts | 219° |
| 2026-05-01 14:53 | -35.39126 | 149.84104 | 8025 ft | 141 kts | 219° |
| 2026-05-01 14:54 | -35.39892 | 149.83365 | 8026 ft | 140 kts | 219° |
| 2026-05-01 14:54 | -35.40662 | 149.82619 | 8025 ft | 142 kts | 219° |
| 2026-05-01 14:54 | -35.41442 | 149.81871 | 8024 ft | 143 kts | 219° |
| 2026-05-01 14:54 | -35.42224 | 149.81118 | 8024 ft | 143 kts | 219° |
| 2026-05-01 14:55 | -35.43004 | 149.80364 | 8025 ft | 143 kts | 219° |
| 2026-05-01 14:55 | -35.43785 | 149.79614 | 8024 ft | 142 kts | 219° |
| 2026-05-01 14:55 | -35.44563 | 149.78864 | 8026 ft | 141 kts | 219° |
| 2026-05-01 14:55 | -35.45339 | 149.78121 | 8025 ft | 142 kts | 219° |
| 2026-05-01 14:56 | -35.46120 | 149.77366 | 8023 ft | 142 kts | 219° |
| 2026-05-01 14:56 | -35.46903 | 149.76619 | 8025 ft | 143 kts | 219° |
| 2026-05-01 14:56 | -35.47675 | 149.75878 | 8024 ft | 143 kts | 219° |
| 2026-05-01 14:56 | -35.48203 | 149.75372 | 8026 ft | 142 kts | 219° |
| 2026-05-01 14:57 | -35.48983 | 149.74619 | 8024 ft | 143 kts | 219° |
| 2026-05-01 14:57 | -35.50540 | 149.73119 | 8026 ft | 140 kts | 219° |
| 2026-05-01 14:57 | -35.51307 | 149.72379 | 8026 ft | 141 kts | 219° |
| 2026-05-01 14:58 | -35.52333 | 149.71392 | 8026 ft | 142 kts | 219° |
| 2026-05-01 14:58 | -35.52846 | 149.70897 | 8025 ft | 141 kts | 219° |
| 2026-05-01 14:58 | -35.53617 | 149.70160 | 8026 ft | 141 kts | 219° |
| 2026-05-01 14:58 | -35.54394 | 149.69408 | 8025 ft | 143 kts | 219° |
| 2026-05-01 14:59 | -35.55178 | 149.68660 | 8024 ft | 143 kts | 219° |
| 2026-05-01 14:59 | -35.55960 | 149.67909 | 8024 ft | 142 kts | 219° |
| 2026-05-01 14:59 | -35.56740 | 149.67165 | 8025 ft | 142 kts | 219° |
| 2026-05-01 14:59 | -35.57519 | 149.66417 | 8025 ft | 142 kts | 219° |
| 2026-05-01 15:00 | -35.59094 | 149.64932 | 8025 ft | 143 kts | 218° |
| 2026-05-01 15:00 | -35.59890 | 149.64210 | 8026 ft | 142 kts | 218° |
| 2026-05-01 15:00 | -35.60679 | 149.63493 | 8025 ft | 143 kts | 218° |
| 2026-05-01 15:01 | -35.61475 | 149.62761 | 8026 ft | 142 kts | 218° |
| 2026-05-01 15:01 | -35.62274 | 149.62032 | 8025 ft | 143 kts | 218° |
| 2026-05-01 15:01 | -35.63070 | 149.61305 | 8025 ft | 142 kts | 218° |
| 2026-05-01 15:01 | -35.63861 | 149.60581 | 8027 ft | 141 kts | 218° |
| 2026-05-01 15:02 | -35.64649 | 149.59868 | 8027 ft | 140 kts | 218° |
| 2026-05-01 15:02 | -35.65168 | 149.59396 | 8025 ft | 141 kts | 218° |
| 2026-05-01 15:02 | -35.66225 | 149.58433 | 8026 ft | 140 kts | 218° |
| 2026-05-01 15:02 | -35.67002 | 149.57721 | 8025 ft | 140 kts | 218° |
| 2026-05-01 15:03 | -35.67785 | 149.57006 | 8025 ft | 140 kts | 218° |
| 2026-05-01 15:03 | -35.68572 | 149.56281 | 8023 ft | 142 kts | 218° |
| 2026-05-01 15:03 | -35.69366 | 149.55556 | 8024 ft | 142 kts | 218° |
| 2026-05-01 15:03 | -35.70163 | 149.54827 | 8026 ft | 142 kts | 218° |
| 2026-05-01 15:04 | -35.70961 | 149.54098 | 8025 ft | 143 kts | 218° |
| 2026-05-01 15:04 | -35.71753 | 149.53374 | 8025 ft | 142 kts | 218° |
| 2026-05-01 15:04 | -35.72543 | 149.52652 | 8025 ft | 141 kts | 218° |
| 2026-05-01 15:04 | -35.73329 | 149.51930 | 8026 ft | 140 kts | 218° |
| 2026-05-01 15:05 | -35.74113 | 149.51212 | 8024 ft | 141 kts | 218° |
| 2026-05-01 15:05 | -35.74900 | 149.50490 | 8025 ft | 141 kts | 218° |
| 2026-05-01 15:05 | -35.75690 | 149.49771 | 8025 ft | 141 kts | 218° |
| 2026-05-01 15:05 | -35.76473 | 149.49050 | 8024 ft | 141 kts | 218° |
| 2026-05-01 15:06 | -35.77262 | 149.48333 | 8026 ft | 140 kts | 218° |
| 2026-05-01 15:06 | -35.78044 | 149.47627 | 8026 ft | 142 kts | 218° |
| 2026-05-01 15:06 | -35.78837 | 149.46906 | 8025 ft | 142 kts | 218° |
| 2026-05-01 15:06 | -35.79636 | 149.46174 | 8026 ft | 141 kts | 218° |
| 2026-05-01 15:07 | -35.80419 | 149.45460 | 8024 ft | 143 kts | 218° |
| 2026-05-01 15:07 | -35.81218 | 149.44733 | 8026 ft | 141 kts | 218° |
| 2026-05-01 15:07 | -35.82008 | 149.44018 | 8025 ft | 140 kts | 218° |
| 2026-05-01 15:07 | -35.82790 | 149.43310 | 8025 ft | 138 kts | 218° |
| 2026-05-01 15:08 | -35.83564 | 149.42606 | 8025 ft | 138 kts | 218° |
| 2026-05-01 15:08 | -35.84339 | 149.41896 | 8025 ft | 140 kts | 218° |
| 2026-05-01 15:08 | -35.85130 | 149.41175 | 8023 ft | 142 kts | 218° |
| 2026-05-01 15:08 | -35.85924 | 149.40455 | 8025 ft | 141 kts | 218° |
| 2026-05-01 15:09 | -35.86715 | 149.39729 | 8025 ft | 142 kts | 218° |
| 2026-05-01 15:09 | -35.87510 | 149.39003 | 8025 ft | 142 kts | 218° |
| 2026-05-01 15:09 | -35.88308 | 149.38273 | 8024 ft | 142 kts | 218° |
| 2026-05-01 15:09 | -35.89104 | 149.37551 | 8024 ft | 142 kts | 218° |
| 2026-05-01 15:10 | -35.89901 | 149.36821 | 8024 ft | 142 kts | 218° |
| 2026-05-01 15:10 | -35.91476 | 149.35379 | 8025 ft | 140 kts | 218° |
| 2026-05-01 15:10 | -35.92263 | 149.34668 | 8026 ft | 140 kts | 218° |
| 2026-05-01 15:11 | -35.93038 | 149.33965 | 8025 ft | 139 kts | 218° |
| 2026-05-01 15:11 | -35.94606 | 149.32560 | 8026 ft | 140 kts | 218° |
| 2026-05-01 15:11 | -35.95414 | 149.31867 | 8023 ft | 143 kts | 218° |
| 2026-05-01 15:12 | -35.96224 | 149.31177 | 8025 ft | 141 kts | 218° |
| 2026-05-01 15:12 | -35.97828 | 149.29788 | 8023 ft | 141 kts | 218° |
| 2026-05-01 15:12 | -35.98628 | 149.29093 | 8027 ft | 140 kts | 218° |
| 2026-05-01 15:13 | -36.01022 | 149.27025 | 8026 ft | 140 kts | 218° |
| 2026-05-01 15:14 | -36.02616 | 149.25647 | 8027 ft | 138 kts | 218° |
| 2026-05-01 15:14 | -36.03411 | 149.24964 | 8025 ft | 140 kts | 218° |
| 2026-05-01 15:14 | -36.05017 | 149.23586 | 8024 ft | 142 kts | 218° |
| 2026-05-01 15:15 | -36.06622 | 149.22204 | 8024 ft | 142 kts | 218° |
| 2026-05-01 15:15 | -36.08249 | 149.20805 | 8025 ft | 142 kts | 218° |
| 2026-05-01 15:16 | -36.09873 | 149.19401 | 8025 ft | 143 kts | 218° |
| 2026-05-01 15:16 | -36.11432 | 149.17890 | 8025 ft | 142 kts | 222° |
| 2026-05-01 15:17 | -36.12976 | 149.16354 | 8024 ft | 143 kts | 222° |
| 2026-05-01 15:18 | -36.15286 | 149.14057 | 8017 ft | 141 kts | 222° |
| 2026-05-01 15:18 | -36.16055 | 149.13292 | 8016 ft | 142 kts | 222° |
| 2026-05-01 15:19 | -36.18358 | 149.10998 | 8016 ft | 141 kts | 222° |
| 2026-05-01 15:19 | -36.19897 | 149.09454 | 8015 ft | 142 kts | 222° |
| 2026-05-01 15:19 | -36.20666 | 149.08684 | 8015 ft | 142 kts | 222° |
| 2026-05-01 15:20 | -36.22211 | 149.07145 | 8016 ft | 143 kts | 222° |
| 2026-05-01 15:20 | -36.22980 | 149.06376 | 8017 ft | 142 kts | 222° |
| 2026-05-01 15:20 | -36.23749 | 149.05607 | 8016 ft | 143 kts | 222° |
| 2026-05-01 15:21 | -36.24519 | 149.04837 | 8016 ft | 141 kts | 222° |
| 2026-05-01 15:21 | -36.25284 | 149.04071 | 8016 ft | 141 kts | 222° |
| 2026-05-01 15:21 | -36.26037 | 149.03320 | 8016 ft | 141 kts | 222° |
| 2026-05-01 15:21 | -36.26808 | 149.02555 | 8017 ft | 140 kts | 222° |
| 2026-05-01 15:22 | -36.28319 | 149.01046 | 8016 ft | 141 kts | 222° |
| 2026-05-01 15:22 | -36.29088 | 149.00287 | 8015 ft | 142 kts | 222° |
| 2026-05-01 15:22 | -36.29861 | 148.99521 | 8017 ft | 141 kts | 222° |
| 2026-05-01 15:23 | -36.30624 | 148.98764 | 8016 ft | 140 kts | 222° |
| 2026-05-01 15:23 | -36.31383 | 148.97999 | 8016 ft | 140 kts | 222° |
| 2026-05-01 15:23 | -36.32138 | 148.97241 | 8016 ft | 140 kts | 222° |
| 2026-05-01 15:23 | -36.32884 | 148.96486 | 8017 ft | 137 kts | 222° |
| 2026-05-01 15:24 | -36.33634 | 148.95737 | 8018 ft | 137 kts | 222° |
| 2026-05-01 15:24 | -36.34381 | 148.94989 | 8016 ft | 138 kts | 222° |
| 2026-05-01 15:24 | -36.35122 | 148.94245 | 8015 ft | 140 kts | 222° |
| 2026-05-01 15:24 | -36.35889 | 148.93482 | 8015 ft | 139 kts | 222° |
| 2026-05-01 15:25 | -36.36632 | 148.92737 | 8015 ft | 140 kts | 222° |
| 2026-05-01 15:25 | -36.37398 | 148.91978 | 8014 ft | 141 kts | 222° |
| 2026-05-01 15:25 | -36.38166 | 148.91215 | 8014 ft | 141 kts | 222° |
| 2026-05-01 15:25 | -36.38931 | 148.90456 | 8006 ft | 140 kts | 222° |
| 2026-05-01 15:26 | -36.39696 | 148.89696 | 8006 ft | 141 kts | 222° |
| 2026-05-01 15:26 | -36.40459 | 148.88938 | 8008 ft | 140 kts | 222° |
| 2026-05-01 15:26 | -36.41197 | 148.88158 | 8002 ft | 139 kts | 230° |
| 2026-05-01 15:26 | -36.41731 | 148.87172 | 8008 ft | 136 kts | 243° |
| 2026-05-01 15:27 | -36.42213 | 148.86157 | 8008 ft | 136 kts | 243° |
| 2026-05-01 15:27 | -36.42692 | 148.85149 | 8007 ft | 136 kts | 243° |
| 2026-05-01 15:27 | -36.43170 | 148.84141 | 8007 ft | 136 kts | 243° |
| 2026-05-01 15:28 | -36.44132 | 148.82116 | 8009 ft | 136 kts | 243° |
| 2026-05-01 15:28 | -36.44615 | 148.81099 | 8007 ft | 137 kts | 243° |
| 2026-05-01 15:28 | -36.45092 | 148.80091 | 8007 ft | 137 kts | 243° |
| 2026-05-01 15:29 | -36.46050 | 148.78062 | 8007 ft | 135 kts | 243° |
| 2026-05-01 15:29 | -36.46527 | 148.77052 | 8007 ft | 136 kts | 243° |
| 2026-05-01 15:29 | -36.47471 | 148.75051 | 8006 ft | 134 kts | 243° |
| 2026-05-01 15:30 | -36.48427 | 148.73023 | 8006 ft | 136 kts | 243° |
| 2026-05-01 15:31 | -36.50339 | 148.68971 | 8007 ft | 136 kts | 243° |
| 2026-05-01 15:31 | -36.51303 | 148.66924 | 8005 ft | 138 kts | 243° |
| 2026-05-01 15:32 | -36.52268 | 148.64874 | 8008 ft | 136 kts | 243° |
| 2026-05-01 15:32 | -36.53228 | 148.62837 | 7997 ft | 137 kts | 243° |
| 2026-05-01 15:33 | -36.54658 | 148.59812 | 7998 ft | 135 kts | 243° |
| 2026-05-01 15:34 | -36.56094 | 148.56766 | 7997 ft | 137 kts | 243° |